Time;durP1;ratioP1;P1;durP2;ratioP2;P2;SDS_P1;SDS_P2;PMS_P1;PMS_P2;Temp;Humidity;BMP_temperature;BMP_pressure;BME280_temperature;BME280_humidity;BME280_pressure;Samples;Min_cycle;Max_cycle;Signal;HPM_P1;HPM_P2
2022/04/16 00:00:59;;;;;;;13.00;8.65;;;;;;;12.22;59.36;99033.45;1810320;79;21060;-39
2022/04/16 00:03:27;;;;;;;14.43;8.90;;;;;;;12.22;59.49;99021.23;1810255;79;20996;-38
2022/04/16 00:05:55;;;;;;;14.60;8.93;;;;;;;12.29;59.55;99023.22;1810649;79;20956;-39
2022/04/16 00:08:25;;;;;;;12.75;9.30;;;;;;;12.39;59.42;99022.52;1810772;79;20969;-38
2022/04/16 00:10:52;;;;;;;16.12;9.53;;;;;;;12.38;59.63;99023.09;1810587;79;21169;-38
2022/04/16 00:13:21;;;;;;;16.00;10.18;;;;;;;12.37;59.61;99025.60;1810569;79;20992;-38
2022/04/16 00:15:54;;;;;;;16.82;10.40;;;;;;;12.36;59.93;99049.08;1810692;79;21017;-38
2022/04/16 00:18:23;;;;;;;19.05;10.53;;;;;;;12.31;60.14;99055.65;1810833;79;20949;-38
2022/04/16 00:20:49;;;;;;;19.70;11.00;;;;;;;12.28;60.20;99037.97;1812849;78;20993;-38
2022/04/16 00:23:22;;;;;;;17.73;11.15;;;;;;;12.26;60.41;99017.17;1816879;79;21518;-38
2022/04/16 00:25:49;;;;;;;18.23;11.05;;;;;;;12.25;60.80;99009.59;1816905;79;20964;-38
2022/04/16 00:28:16;;;;;;;15.60;10.80;;;;;;;12.23;61.09;99018.72;1817227;79;21036;-38
2022/04/16 00:30:43;;;;;;;16.50;10.03;;;;;;;12.22;61.44;98995.98;1816799;79;21011;-38
2022/04/16 00:33:15;;;;;;;19.90;11.28;;;;;;;12.22;61.80;99038.11;1816729;79;21068;-38
2022/04/16 00:35:43;;;;;;;24.82;12.07;;;;;;;12.25;61.81;99050.97;1816638;79;21498;-38
2022/04/16 00:38:10;;;;;;;18.20;11.28;;;;;;;12.18;61.75;99039.45;1816563;79;21624;-38
2022/04/16 00:40:39;;;;;;;21.75;11.68;;;;;;;12.14;61.98;99057.67;1816625;79;20960;-38
2022/04/16 00:43:06;;;;;;;21.93;11.55;;;;;;;12.10;62.19;99052.80;1811151;79;20976;-38
2022/04/16 00:45:34;;;;;;;20.00;10.88;;;;;;;12.07;62.12;99025.78;1816688;79;21013;-39
2022/04/16 00:48:05;;;;;;;16.62;11.63;;;;;;;12.05;62.07;99009.67;1816818;79;21680;-38
2022/04/16 00:50:32;;;;;;;;;;;;;;;12.04;62.31;98999.95;1819472;79;21503;-38
2022/04/16 00:52:59;;;;;;;17.98;11.15;;;;;;;12.06;62.32;98992.19;1816815;78;20173;-38
2022/04/16 00:55:28;;;;;;;19.57;11.65;;;;;;;11.97;62.57;98998.53;1789975;79;20952;-38
2022/04/16 00:57:54;;;;;;;22.30;11.30;;;;;;;12.01;62.54;99010.98;1816706;79;21021;-38
2022/04/16 01:00:22;;;;;;;16.95;10.58;;;;;;;12.03;62.60;99044.00;1816748;79;21234;-38
2022/04/16 01:02:49;;;;;;;18.90;11.35;;;;;;;12.01;62.90;99057.74;1816699;79;20968;-38
2022/04/16 01:05:19;;;;;;;18.15;11.03;;;;;;;11.95;63.04;99054.62;1816769;79;21517;-39
2022/04/16 01:07:56;;;;;;;23.07;11.30;;;;;;;11.90;63.27;99055.53;1816884;79;21808;-38
2022/04/16 01:10:29;;;;;;;16.87;10.78;;;;;;;11.85;63.46;99065.39;1816931;78;20992;-38
2022/04/16 01:13:00;;;;;;;22.02;12.15;;;;;;;11.80;63.70;99058.94;1816710;79;21192;-38
2022/04/16 01:15:30;;;;;;;20.30;11.35;;;;;;;11.75;63.86;99058.70;1815914;79;21003;-38
2022/04/16 01:17:59;;;;;;;18.95;12.15;;;;;;;11.75;64.09;99047.84;1816653;79;21000;-38
2022/04/16 01:20:25;;;;;;;21.73;11.90;;;;;;;11.79;64.00;99049.22;1817612;78;21024;-39
2022/04/16 01:22:56;;;;;;;21.25;11.28;;;;;;;11.76;64.00;99037.19;1825071;78;20921;-38
2022/04/16 01:25:27;;;;;;;19.42;12.55;;;;;;;11.76;64.15;99054.23;1825113;78;21271;-38
2022/04/16 01:27:52;;;;;;;20.37;12.10;;;;;;;11.75;64.26;99051.91;1824845;78;20921;-38
2022/04/16 01:30:22;;;;;;;17.80;11.80;;;;;;;11.71;64.30;99040.97;1825169;78;21525;-38
2022/04/16 01:32:50;;;;;;;17.57;12.03;;;;;;;11.39;64.53;98993.74;1825335;78;21011;-38
2022/04/16 01:35:17;;;;;;;15.65;10.38;;;;;;;11.71;64.48;99043.68;1825213;78;21024;-38
2022/04/16 01:37:43;;;;;;;15.98;11.55;;;;;;;11.74;64.52;99048.41;1825069;78;21103;-38
2022/04/16 01:40:14;;;;;;;19.85;10.72;;;;;;;11.78;64.45;99050.37;1825049;78;21564;-38
2022/04/16 01:42:44;;;;;;;17.45;11.88;;;;;;;11.76;64.51;99047.45;1825668;78;21502;-38
2022/04/16 01:45:11;;;;;;;12.35;8.70;;;;;;;11.72;64.67;99047.18;1825452;78;20921;-38
2022/04/16 01:47:39;;;;;;;16.15;11.00;;;;;;;11.66;64.77;99045.41;1825122;78;20933;-38
2022/04/16 01:50:10;;;;;;;16.95;12.00;;;;;;;11.61;64.96;99059.32;1825293;78;21494;-38
2022/04/16 01:52:37;;;;;;;19.17;12.30;;;;;;;11.56;65.11;99063.73;1825558;78;21003;-38
2022/04/16 01:55:07;;;;;;;24.20;12.78;;;;;;;11.57;65.26;99063.16;1825226;78;21256;-38
2022/04/16 01:57:34;;;;;;;21.33;13.28;;;;;;;11.57;65.30;99055.02;1825832;78;21007;-38
2022/04/16 02:00:01;;;;;;;18.35;12.58;;;;;;;11.57;65.45;99059.09;1825290;78;21017;-38
2022/04/16 02:02:31;;;;;;;20.40;12.45;;;;;;;11.54;65.42;99047.02;1825224;78;21179;-38
2022/04/16 02:04:58;;;;;;;20.82;13.08;;;;;;;11.52;65.39;99045.24;1825131;78;21486;-38
2022/04/16 02:07:25;;;;;;;18.90;12.65;;;;;;;11.48;65.51;99039.00;1825204;78;21616;-38
2022/04/16 02:09:52;;;;;;;23.45;12.98;;;;;;;11.44;65.63;99027.34;1825081;78;21067;-38
2022/04/16 02:12:19;;;;;;;17.77;11.90;;;;;;;11.42;65.69;99029.66;1825072;78;20981;-38
2022/04/16 02:14:45;;;;;;;20.75;12.80;;;;;;;11.45;65.63;99027.55;1825137;78;21109;-38
2022/04/16 02:17:14;;;;;;;23.60;13.38;;;;;;;11.47;65.58;99021.75;1825040;78;20988;-38
2022/04/16 02:19:41;;;;;;;22.22;12.82;;;;;;;11.46;65.58;99025.61;1824974;78;21018;-38
2022/04/16 02:22:11;;;;;;;20.00;12.83;;;;;;;11.45;65.64;99032.19;1819744;78;20976;-38
2022/04/16 02:24:39;;;;;;;22.20;13.25;;;;;;;11.42;65.80;99031.59;1816877;79;21063;-38
2022/04/16 02:27:06;;;;;;;21.60;13.22;;;;;;;11.38;65.87;99042.96;1816571;79;21123;-38
2022/04/16 02:29:34;;;;;;;20.65;12.93;;;;;;;11.29;66.27;99048.69;1816617;78;20992;-38
2022/04/16 02:32:03;;;;;;;26.02;14.00;;;;;;;11.26;66.29;99046.73;1816684;79;20968;-38
2022/04/16 02:34:29;;;;;;;24.40;15.13;;;;;;;11.18;66.35;99041.03;1816438;79;20997;-38
2022/04/16 02:36:58;;;;;;;23.12;14.40;;;;;;;11.27;66.41;99060.52;1816842;79;21252;-38
2022/04/16 02:39:25;;;;;;;25.05;13.35;;;;;;;11.24;66.45;99053.09;1816630;79;21226;-38
2022/04/16 02:41:52;;;;;;;18.95;13.00;;;;;;;11.22;66.50;99055.41;1816499;79;21003;-38
2022/04/16 02:47:05;;;;;;;15.75;11.28;;;;;;;11.16;66.81;99062.31;1819434;78;21596;-38
2022/04/16 02:49:34;;;;;;;15.93;11.10;;;;;;;11.16;66.84;99056.89;1819565;78;21021;-38
2022/04/16 02:52:01;;;;;;;16.70;11.25;;;;;;;11.17;66.94;99061.17;1819424;78;23049;-38
2022/04/16 02:54:29;;;;;;;17.12;12.43;;;;;;;11.15;67.01;99062.09;1819384;78;20988;-38
2022/04/16 02:56:55;;;;;;;17.27;12.05;;;;;;;11.13;67.13;99059.00;1819685;78;20952;-38
2022/04/16 02:59:24;;;;;;;17.20;12.63;;;;;;;11.11;67.15;99062.64;1819530;78;20905;-38
2022/04/16 03:01:52;;;;;;;17.85;12.10;;;;;;;11.09;67.36;99062.22;1819526;78;21024;-38
2022/04/16 03:04:18;;;;;;;18.90;13.30;;;;;;;11.08;67.39;99063.39;1819519;78;21328;-38
2022/04/16 03:06:45;;;;;;;18.12;12.93;;;;;;;11.08;67.58;99064.17;1819388;78;21518;-38
2022/04/16 03:09:12;;;;;;;22.10;15.25;;;;;;;11.06;67.72;99066.46;1819638;78;20987;-38
2022/04/16 03:11:41;;;;;;;23.45;15.15;;;;;;;11.03;67.86;99062.36;1819452;78;21549;-38
2022/04/16 03:19:39;;;;;;;21.50;14.28;;;;;;;10.85;68.61;99066.97;1819459;78;20996;-38
2022/04/16 03:22:06;;;;;;;23.47;15.30;;;;;;;10.87;68.73;99072.03;1831592;77;20968;-38
2022/04/16 03:24:34;;;;;;;25.90;15.50;;;;;;;10.85;68.96;99065.61;1844853;77;21622;-38
2022/04/16 03:27:01;;;;;;;20.20;14.20;;;;;;;10.81;69.08;99068.86;1844951;77;21020;-38
2022/04/16 03:29:28;;;;;;;21.85;15.80;;;;;;;10.78;69.29;99070.96;1844801;77;21208;-38
2022/04/16 03:31:56;;;;;;;20.48;13.80;;;;;;;10.74;69.50;99068.78;1844704;77;20874;-38
2022/04/16 03:34:22;;;;;;;18.67;13.75;;;;;;;10.74;69.53;99064.72;1844861;77;20956;-38
2022/04/16 03:36:50;;;;;;;24.12;15.72;;;;;;;10.80;69.49;99065.15;1845117;77;20996;-38
2022/04/16 03:39:17;;;;;;;20.88;14.87;;;;;;;10.84;69.54;99068.72;1845195;77;21529;-38
2022/04/16 03:41:43;;;;;;;22.17;15.68;;;;;;;10.84;69.63;99071.42;1845053;77;21957;-38
2022/04/16 03:44:10;;;;;;;26.60;17.65;;;;;;;10.79;69.67;99061.69;1845221;77;21060;-38
2022/04/16 03:46:38;;;;;;;26.00;16.17;;;;;;;10.76;69.83;99064.33;1845241;77;20956;-38
2022/04/16 03:49:05;;;;;;;26.48;15.65;;;;;;;10.76;69.84;99062.40;1845363;77;21005;-38
2022/04/16 03:51:32;;;;;;;26.10;16.57;;;;;;;10.81;69.82;99067.50;1845239;77;20989;-38
2022/04/16 03:59:59;;;;;;;25.43;16.37;;;;;;;10.84;69.83;99068.11;1845304;77;23157;-38
2022/04/16 04:01:59;;;;;;;18.45;13.30;;;;;;;10.87;69.96;99067.97;1845311;77;21020;-38
2022/04/16 04:04:26;;;;;;;19.57;13.18;;;;;;;10.89;69.95;99066.44;1845387;77;21541;-38
2022/04/16 04:06:54;;;;;;;18.12;14.03;;;;;;;10.94;69.88;99064.58;1845247;77;20984;-38
2022/04/16 04:09:21;;;;;;;18.70;14.03;;;;;;;11.00;69.89;99065.22;1845276;77;21484;-38
2022/04/16 04:11:48;;;;;;;18.85;14.30;;;;;;;11.05;69.94;99071.67;1844943;77;20996;-38
2022/04/16 04:14:14;;;;;;;18.75;14.15;;;;;;;11.06;69.81;99072.46;1845206;77;21016;-38
2022/04/16 04:16:42;;;;;;;18.12;14.93;;;;;;;11.07;69.84;99071.31;1845010;77;21000;-38
2022/04/16 04:19:09;;;;;;;18.75;14.00;;;;;;;11.08;69.85;99071.53;1845148;77;21086;-38
2022/04/16 04:21:36;;;;;;;18.87;13.45;;;;;;;11.14;69.85;99071.38;1844744;77;21445;-38
2022/04/16 04:24:05;;;;;;;19.85;13.65;;;;;;;11.21;69.76;99079.05;1826123;77;21620;-38
2022/04/16 04:26:33;;;;;;;18.67;14.05;;;;;;;11.26;69.73;99079.30;1825076;78;21480;-38
2022/04/16 04:29:01;;;;;;;20.85;14.10;;;;;;;11.28;69.77;99070.19;1825231;78;21526;-38
2022/04/16 04:31:29;;;;;;;19.45;15.32;;;;;;;11.27;69.71;99071.36;1825192;78;21091;-38
2022/04/16 04:33:56;;;;;;;24.18;14.95;;;;;;;11.25;69.77;99075.80;1825137;78;20873;-38
2022/04/16 04:36:25;;;;;;;18.23;13.90;;;;;;;11.22;69.82;99073.05;1807971;75;22424;-39
2022/04/16 04:38:52;;;;;;;19.65;13.75;;;;;;;11.24;69.84;99065.30;1750795;80;20988;-40
2022/04/16 04:41:20;;;;;;;18.05;14.15;;;;;;;11.31;69.74;99072.97;1752785;81;21583;-40
2022/04/16 04:43:48;;;;;;;17.60;14.45;;;;;;;11.32;69.72;99067.75;1755660;81;21522;-40
2022/04/16 04:46:15;;;;;;;19.65;14.30;;;;;;;11.31;69.72;99070.25;1755585;81;21910;-40
2022/04/16 04:48:42;;;;;;;19.55;14.60;;;;;;;11.30;69.76;99063.83;1755636;81;21021;-40
2022/04/16 04:51:09;;;;;;;17.45;13.93;;;;;;;11.29;69.82;99060.33;1755662;81;21614;-40
2022/04/16 04:53:37;;;;;;;18.77;14.05;;;;;;;11.30;69.83;99058.41;1755645;81;21021;-40
2022/04/16 04:56:05;;;;;;;17.75;14.58;;;;;;;11.35;69.80;99060.78;1755728;81;21231;-40
2022/04/16 04:58:32;;;;;;;20.27;14.98;;;;;;;11.39;69.72;99066.24;1755710;81;21028;-40
2022/04/16 05:00:59;;;;;;;19.10;13.95;;;;;;;11.41;69.64;99059.88;1755697;81;20984;-40
2022/04/16 05:03:25;;;;;;;20.08;14.98;;;;;;;11.42;69.54;99063.59;1755500;81;20997;-40
2022/04/16 05:05:53;;;;;;;19.55;14.30;;;;;;;11.44;69.46;99068.63;1755696;81;20989;-40
2022/04/16 05:08:20;;;;;;;18.27;13.60;;;;;;;11.44;69.51;99067.27;1755827;81;21179;-40
2022/04/16 05:10:48;;;;;;;18.92;14.50;;;;;;;11.47;69.34;99063.25;1755542;81;20981;-40
2022/04/16 05:13:15;;;;;;;20.72;15.53;;;;;;;11.50;69.33;99067.93;1755714;81;20971;-40
2022/04/16 05:15:41;;;;;;;21.70;15.90;;;;;;;11.53;69.33;99065.81;1755656;81;21056;-40
2022/04/16 05:18:09;;;;;;;20.43;15.03;;;;;;;11.54;69.27;99063.31;1755670;81;21025;-40
2022/04/16 05:20:37;;;;;;;20.08;13.68;;;;;;;11.56;69.21;99063.73;1755615;81;21534;-40
2022/04/16 05:23:04;;;;;;;19.32;13.78;;;;;;;11.62;69.10;99071.72;1755586;81;21088;-40
2022/04/16 05:25:32;;;;;;;19.27;13.90;;;;;;;11.70;68.81;99065.80;1755493;81;20965;-40
2022/04/16 05:28:00;;;;;;;18.20;14.03;;;;;;;11.73;68.75;99066.43;1755739;81;20993;-40
2022/04/16 05:30:37;;;;;;;21.07;14.68;;;;;;;11.75;68.69;99064.13;1755560;81;21042;-40
2022/04/16 05:33:02;;;;;;;19.50;15.40;;;;;;;11.75;68.69;99070.34;1753367;81;21255;-40
2022/04/16 05:35:25;;;;;;;17.70;14.60;;;;;;;11.77;68.54;99067.23;1754999;81;21548;-40
2022/04/16 05:37:52;;;;;;;18.87;13.88;;;;;;;11.77;68.54;99067.23;1755052;81;21012;-40
2022/04/16 05:40:19;;;;;;;19.32;13.65;;;;;;;11.80;68.33;99067.87;1754221;81;20968;-40
2022/04/16 05:42:46;;;;;;;18.87;13.62;;;;;;;11.88;68.17;99068.12;1754422;81;21036;-40
2022/04/16 05:45:14;;;;;;;19.52;14.05;;;;;;;11.89;68.06;99072.98;1754399;81;21275;-40
2022/04/16 05:47:43;;;;;;;19.82;15.03;;;;;;;11.90;68.15;99065.83;1754093;81;21471;-40
2022/04/16 05:50:10;;;;;;;19.48;15.03;;;;;;;11.90;68.15;99063.69;1754319;81;20941;-40
2022/04/16 05:52:38;;;;;;;21.05;15.13;;;;;;;11.89;68.08;99066.97;1754164;81;20941;-40
2022/04/16 05:55:06;;;;;;;19.15;13.45;;;;;;;11.88;68.23;99064.05;1754329;81;21080;-41
2022/04/16 05:57:33;;;;;;;22.77;15.05;;;;;;;11.89;68.16;99068.91;1754159;81;21840;-40
2022/04/16 06:00:00;;;;;;;18.17;14.43;;;;;;;11.88;68.07;99066.77;1754139;81;21600;-41
2022/04/16 06:02:27;;;;;;;20.95;14.10;;;;;;;11.81;68.24;99077.58;1754162;81;21057;-41
2022/04/16 06:04:55;;;;;;;18.05;13.53;;;;;;;11.79;68.37;99076.38;1754262;81;21059;-41
2022/04/16 06:07:22;;;;;;;19.75;15.25;;;;;;;11.80;68.45;99077.95;1754533;81;21075;-40
2022/04/16 06:09:49;;;;;;;18.92;14.00;;;;;;;11.78;68.39;99081.60;1754187;81;21192;-40
2022/04/16 06:12:17;;;;;;;18.95;14.45;;;;;;;11.75;68.44;99081.21;1754198;81;21526;-40
2022/04/16 06:14:43;;;;;;;18.57;14.15;;;;;;;11.76;68.58;99078.67;1754225;81;21071;-41
2022/04/16 06:17:10;;;;;;;19.92;14.78;;;;;;;11.72;68.66;99083.30;1754268;81;21103;-41
2022/04/16 06:19:37;;;;;;;20.82;14.00;;;;;;;11.68;68.78;99081.10;1754433;81;21507;-40
2022/04/16 06:22:05;;;;;;;19.67;14.87;;;;;;;11.68;68.89;99085.75;1754349;81;21212;-40
2022/04/16 06:24:31;;;;;;;17.00;13.32;;;;;;;11.67;69.12;99084.96;1754195;81;21088;-40
2022/04/16 06:26:58;;;;;;;20.40;12.95;;;;;;;11.70;69.24;99088.31;1754347;81;20956;-40
2022/04/16 06:29:25;;;;;;;17.73;13.68;;;;;;;11.81;69.10;99086.30;1754211;81;20953;-40
2022/04/16 06:31:52;;;;;;;20.08;14.65;;;;;;;11.89;68.92;99082.49;1754285;81;21053;-40
2022/04/16 06:34:18;;;;;;;20.23;14.98;;;;;;;11.98;68.74;99081.59;1754290;81;21910;-41
2022/04/16 06:36:45;;;;;;;20.15;15.13;;;;;;;12.04;68.14;99086.90;1754192;81;21086;-40
2022/04/16 06:39:12;;;;;;;17.67;13.60;;;;;;;12.03;67.83;99083.97;1755268;81;21037;-40
2022/04/16 06:41:40;;;;;;;17.00;13.65;;;;;;;12.05;67.66;99082.42;1755652;81;21033;-40
2022/04/16 06:44:07;;;;;;;20.62;14.47;;;;;;;12.12;67.37;99079.00;1755619;81;20977;-40
2022/04/16 06:46:34;;;;;;;17.80;14.47;;;;;;;12.18;66.52;99076.14;1755497;81;21240;-41
2022/04/16 06:49:01;;;;;;;19.37;15.68;;;;;;;12.18;66.35;99077.50;1755465;81;21048;-41
2022/04/16 06:51:29;;;;;;;20.02;14.68;;;;;;;12.18;66.20;99081.00;1755619;81;20965;-40
2022/04/16 06:53:57;;;;;;;18.25;14.00;;;;;;;12.18;66.34;99086.44;1755622;81;21089;-40
2022/04/16 06:56:23;;;;;;;18.90;14.93;;;;;;;12.23;66.27;99086.66;1755504;81;21032;-41
2022/04/16 06:58:50;;;;;;;16.00;13.30;;;;;;;12.32;66.03;99083.62;1755711;81;21267;-40
2022/04/16 07:01:17;;;;;;;16.73;13.78;;;;;;;12.40;65.83;99092.80;1755839;81;21028;-40
2022/04/16 07:03:44;;;;;;;15.83;13.38;;;;;;;12.50;65.34;99089.38;1755478;81;21043;-41
2022/04/16 07:06:10;;;;;;;19.90;14.33;;;;;;;12.57;65.14;99096.81;1755609;81;21088;-40
2022/04/16 07:08:39;;;;;;;19.62;14.25;;;;;;;12.60;65.08;99092.75;1755431;81;20976;-40
2022/04/16 07:11:07;;;;;;;18.70;15.23;;;;;;;12.67;65.11;99093.37;1755590;81;21341;-40
2022/04/16 07:13:35;;;;;;;19.75;15.40;;;;;;;12.76;65.10;99093.03;1755515;81;21506;-40
2022/04/16 07:16:02;;;;;;;16.62;14.58;;;;;;;12.83;64.34;99097.17;1755660;81;21371;-40
2022/04/16 07:18:30;;;;;;;17.25;13.25;;;;;;;12.88;63.84;99098.14;1755445;81;21008;-40
2022/04/16 07:20:57;;;;;;;19.87;14.28;;;;;;;12.94;63.50;99097.41;1755628;81;21044;-40
2022/04/16 07:23:24;;;;;;;17.42;13.32;;;;;;;12.99;63.52;99097.62;1755628;81;21806;-41
2022/04/16 07:25:51;;;;;;;18.37;13.18;;;;;;;13.02;63.13;99095.52;1755684;81;21601;-41
2022/04/16 07:28:24;;;;;;;19.50;13.75;;;;;;;13.11;62.70;99101.42;1755600;81;21036;-40
2022/04/16 07:30:51;;;;;;;17.07;14.00;;;;;;;13.19;61.86;99100.28;1755622;81;21542;-40
2022/04/16 07:33:18;;;;;;;15.55;13.55;;;;;;;13.21;61.76;99097.19;1755687;81;21092;-40
2022/04/16 07:38:23;;;;;;;16.02;12.85;;;;;;;13.35;61.90;99098.02;1830624;78;22741;-39
2022/04/16 07:40:52;;;;;;;17.02;13.65;;;;;;;13.32;61.96;99098.77;1802700;79;21236;-40
2022/04/16 07:43:19;;;;;;;16.52;13.95;;;;;;;13.37;61.87;99094.31;1802629;79;23119;-40
2022/04/16 07:45:45;;;;;;;17.32;14.03;;;;;;;13.43;61.72;99099.59;1802448;79;21026;-40
2022/04/16 07:48:12;;;;;;;15.72;12.78;;;;;;;13.46;61.26;99096.09;1802646;79;20958;-40
2022/04/16 07:50:39;;;;;;;16.10;12.20;;;;;;;13.49;60.88;99105.45;1802613;79;20967;-40
2022/04/16 07:53:06;;;;;;;16.00;12.23;;;;;;;13.52;60.59;99101.94;1802506;79;20983;-40
2022/04/16 07:55:34;;;;;;;14.55;12.07;;;;;;;13.62;60.52;99104.50;1802714;79;22018;-40
2022/04/16 07:58:01;;;;;;;15.28;12.15;;;;;;;13.65;59.72;99096.94;1802403;78;21526;-40
2022/04/16 08:00:28;;;;;;;12.85;11.03;;;;;;;13.73;59.74;99106.67;1815992;78;20948;-38
2022/04/16 08:02:55;;;;;;;14.20;11.43;;;;;;;13.77;58.03;99105.52;1815965;79;21328;-38
2022/04/16 08:05:21;;;;;;;14.30;11.33;;;;;;;13.74;58.25;99103.56;1816001;79;20921;-38
2022/04/16 08:07:49;;;;;;;15.68;12.70;;;;;;;13.74;58.83;99113.69;1815925;79;21119;-38
2022/04/16 08:10:17;;;;;;;14.37;11.63;;;;;;;13.80;58.73;99112.12;1816261;79;20920;-38
2022/04/16 08:12:44;;;;;;;14.07;12.40;;;;;;;13.81;58.17;99110.38;1816056;79;20999;-38
2022/04/16 08:15:12;;;;;;;13.58;11.48;;;;;;;13.80;58.72;99109.39;1815947;79;20996;-38
2022/04/16 08:17:40;;;;;;;12.25;10.95;;;;;;;13.75;58.63;99107.05;1815847;79;21004;-38
2022/04/16 08:20:09;;;;;;;14.65;11.20;;;;;;;13.80;58.49;99107.45;1816115;79;21649;-38
2022/04/16 08:22:40;;;;;;;;;;;;;;;13.81;58.01;99109.59;1818639;78;20977;-38
2022/04/16 08:27:47;;;;;;;15.18;11.40;;;;;;;13.75;58.82;99113.86;1809214;79;21055;-38
2022/04/16 08:30:16;;;;;;;12.85;11.20;;;;;;;13.78;58.87;99115.83;1816119;79;21016;-38
2022/04/16 08:32:44;;;;;;;14.87;11.88;;;;;;;13.80;58.44;99112.12;1816198;79;21777;-38
2022/04/16 08:35:15;;;;;;;17.17;12.60;;;;;;;13.83;58.73;99110.00;1816064;79;21052;-38
2022/04/16 08:37:43;;;;;;;12.55;11.25;;;;;;;13.83;58.60;99116.81;1804828;79;21000;-38
2022/04/16 08:40:10;;;;;;;15.65;11.90;;;;;;;13.78;58.59;99113.10;1797544;79;21347;-38
2022/04/16 08:42:37;;;;;;;13.68;12.13;;;;;;;13.71;58.99;99119.88;1797314;79;21005;-38
2022/04/16 08:45:07;;;;;;;16.67;11.10;;;;;;;13.62;58.95;99123.56;1797534;79;23154;-38
2022/04/16 08:47:35;;;;;;;15.30;12.33;;;;;;;13.51;59.08;99120.05;1797608;79;20934;-38
2022/04/16 08:50:05;;;;;;;15.98;11.70;;;;;;;13.38;59.42;99123.11;1796988;79;20958;-38
2022/04/16 08:52:35;;;;;;;13.08;10.03;;;;;;;13.26;59.99;99124.03;1797389;79;20974;-38
2022/04/16 08:55:05;;;;;;;9.28;7.60;;;;;;;13.23;60.45;99145.20;1790955;79;21017;-38
2022/04/16 08:57:32;;;;;;;10.58;7.65;;;;;;;13.16;60.91;99149.27;1797387;79;21610;-38
2022/04/16 08:59:59;;;;;;;11.00;5.72;;;;;;;12.97;61.22;99142.14;1796978;79;20910;-38
2022/04/16 09:02:27;;;;;;;7.12;4.75;;;;;;;12.70;61.83;99137.48;1796854;79;20929;-38
2022/04/16 09:05:09;;;;;;;5.95;4.60;;;;;;;12.36;62.40;99153.73;1796949;79;20992;-38
2022/04/16 09:07:52;;;;;;;7.62;4.40;;;;;;;11.93;63.76;99153.92;1796949;79;21076;-38
2022/04/16 09:10:20;;;;;;;3.62;2.85;;;;;;;11.50;64.85;99170.30;1797105;79;21202;-38
2022/04/16 09:12:51;;;;;;;4.33;2.27;;;;;;;11.30;65.40;99188.66;1797237;79;21558;-38
2022/04/16 09:15:18;;;;;;;6.65;2.25;;;;;;;11.20;65.33;99186.59;1797168;79;21585;-38
2022/04/16 09:17:59;;;;;;;3.37;2.60;;;;;;;11.05;65.42;99197.03;1796655;79;20954;-38
2022/04/16 09:20:36;;;;;;;4.58;2.52;;;;;;;10.89;66.33;99202.04;1797338;79;21012;-38
2022/04/16 09:23:21;;;;;;;2.47;1.62;;;;;;;10.71;66.58;99206.98;1796912;79;21037;-38
2022/04/16 09:25:49;;;;;;;2.75;2.02;;;;;;;10.53;67.24;99213.48;1797064;79;21089;-38
2022/04/16 09:28:18;;;;;;;2.85;1.87;;;;;;;10.37;67.27;99212.81;1796853;79;21542;-38
2022/04/16 09:30:52;;;;;;;2.65;1.80;;;;;;;10.25;67.70;99216.50;1797299;79;21065;-38
2022/04/16 09:33:20;;;;;;;2.30;1.65;;;;;;;10.12;68.14;99217.00;1797030;79;20985;-38
2022/04/16 09:35:54;;;;;;;3.72;1.70;;;;;;;9.98;68.36;99231.05;1796809;79;21483;-37
2022/04/16 09:38:21;;;;;;;2.47;1.40;;;;;;;9.91;68.20;99233.63;1808691;79;21478;-38
2022/04/16 09:40:48;;;;;;;3.83;1.80;;;;;;;9.88;67.87;99235.11;1813147;79;21025;-38
2022/04/16 09:43:15;;;;;;;1.80;1.30;;;;;;;9.91;67.84;99243.89;1813262;79;20929;-38
2022/04/16 09:45:42;;;;;;;2.35;1.50;;;;;;;9.91;67.71;99246.61;1813352;79;21569;-38
2022/04/16 09:48:13;;;;;;;2.92;1.60;;;;;;;9.90;67.61;99245.59;1813353;79;21479;-38
2022/04/16 09:50:42;;;;;;;2.70;1.52;;;;;;;9.86;67.65;99252.30;1813515;79;21000;-38
2022/04/16 09:53:11;;;;;;;3.10;1.35;;;;;;;9.81;67.57;99245.82;1813318;79;20956;-38
2022/04/16 09:55:38;;;;;;;1.75;1.25;;;;;;;9.82;67.76;99254.73;1813161;79;21612;-37
2022/04/16 09:58:07;;;;;;;1.95;1.20;;;;;;;9.82;67.77;99253.37;1813386;79;21522;-38
2022/04/16 10:00:37;;;;;;;4.45;2.00;;;;;;;9.72;68.06;99258.79;1813440;79;20988;-38
2022/04/16 10:03:07;;;;;;;2.12;1.07;;;;;;;9.66;68.61;99258.85;1813147;79;20972;-37
2022/04/16 10:05:36;;;;;;;2.70;0.93;;;;;;;9.62;69.08;99260.70;1813113;79;20937;-38
2022/04/16 10:08:04;;;;;;;3.52;1.10;;;;;;;9.60;69.19;99267.03;1813316;79;20957;-38
2022/04/16 10:10:36;;;;;;;1.80;1.10;;;;;;;9.59;69.09;99269.52;1813453;79;21021;-38
2022/04/16 10:13:05;;;;;;;2.85;0.70;;;;;;;9.54;69.38;99275.20;1812812;79;21213;-38
2022/04/16 10:16:05;;;;;;;1.65;1.05;;;;;;;9.46;69.75;99277.55;1813111;79;21623;-38
2022/04/16 10:18:34;;;;;;;2.07;1.00;;;;;;;9.36;70.39;99287.00;1781851;79;20953;-37
2022/04/16 10:21:02;;;;;;;;;;;;;;;9.28;70.66;99293.40;1815950;79;21181;-38
2022/04/16 10:23:40;;;;;;;1.67;1.17;;;;;;;9.27;70.43;99296.45;1813330;79;20198;-38
2022/04/16 10:26:10;;;;;;;2.15;1.27;;;;;;;9.08;70.95;99304.72;1813335;79;21144;-38
2022/04/16 10:28:53;;;;;;;2.08;1.15;;;;;;;8.98;71.83;99303.90;1813158;79;21035;-38
2022/04/16 10:31:28;;;;;;;2.02;0.95;;;;;;;8.93;72.37;99296.62;1812685;79;20917;-38
2022/04/16 10:34:09;;;;;;;1.05;0.78;;;;;;;8.91;73.09;99299.66;1813228;79;21003;-38
2022/04/16 10:36:39;;;;;;;1.00;0.90;;;;;;;8.87;72.77;99294.73;1813249;78;21533;-38
2022/04/16 10:39:20;;;;;;;1.07;0.75;;;;;;;8.77;73.56;99299.31;1815079;79;21230;-37
2022/04/16 10:42:01;;;;;;;0.95;0.65;;;;;;;8.71;73.85;99303.43;1815100;79;20894;-38
2022/04/16 10:44:32;;;;;;;1.00;0.90;;;;;;;8.69;74.04;99307.03;1814710;79;20965;-37
2022/04/16 10:46:59;;;;;;;0.82;0.60;;;;;;;8.70;73.99;99309.39;1812913;79;21067;-37
2022/04/16 10:49:27;;;;;;;2.22;0.72;;;;;;;8.68;73.88;99314.91;1815382;79;21510;-37
2022/04/16 10:51:55;;;;;;;1.07;0.68;;;;;;;8.64;74.09;99318.89;1815355;79;21233;-37
2022/04/16 10:54:34;;;;;;;0.53;0.53;;;;;;;8.63;74.30;99314.61;1815476;79;20949;-38
2022/04/16 10:57:02;;;;;;;1.85;1.07;;;;;;;8.64;74.43;99314.84;1815203;79;21510;-37
2022/04/16 10:59:43;;;;;;;1.85;1.27;;;;;;;8.66;74.70;99319.90;1795933;79;21019;-37
2022/04/16 11:02:21;;;;;;;;;;;;;;;8.63;74.60;99320.58;1779508;80;21506;-38
2022/04/16 11:05:00;;;;;;;2.22;1.35;;;;;;;8.55;74.20;99320.18;1777031;80;21226;-37
2022/04/16 11:07:30;;;;;;;1.02;0.80;;;;;;;8.44;75.03;99332.61;1776999;80;21007;-38
2022/04/16 11:09:57;;;;;;;2.58;1.00;;;;;;;8.53;74.69;99335.94;1777165;80;21529;-38
2022/04/16 11:12:26;;;;;;;1.35;1.00;;;;;;;8.57;74.32;99334.91;1777043;80;20980;-37
2022/04/16 11:14:54;;;;;;;1.05;0.80;;;;;;;8.55;74.49;99332.34;1777356;80;21506;-38
2022/04/16 11:17:20;;;;;;;1.37;0.80;;;;;;;8.52;74.26;99339.80;1770965;80;21835;-38
2022/04/16 11:20:05;;;;;;;1.00;0.80;;;;;;;8.52;73.96;99342.50;1776909;80;20968;-37
2022/04/16 11:22:33;;;;;;;3.27;1.20;;;;;;;8.55;73.47;99341.80;1777279;80;21015;-38
2022/04/16 11:25:00;;;;;;;1.80;1.10;;;;;;;8.58;73.71;99339.18;1777174;80;20940;-37
2022/04/16 11:36:08;;;;;;;1.05;0.95;;;;;;;8.86;71.40;99331.01;1777111;80;20985;-37
2022/04/16 11:38:36;;;;;;;1.02;0.90;;;;;;;8.99;71.12;99337.13;1770034;80;21024;-37
2022/04/16 11:41:05;;;;;;;1.40;1.15;;;;;;;9.05;70.23;99337.86;1766111;81;21680;-37
2022/04/16 11:43:33;;;;;;;1.37;1.00;;;;;;;9.10;69.78;99335.48;1759894;81;21096;-38
2022/04/16 11:46:02;;;;;;;1.87;0.93;;;;;;;9.08;68.45;99339.88;1766154;81;21491;-38
2022/04/16 11:48:31;;;;;;;1.42;1.00;;;;;;;9.00;67.96;99348.96;1766397;81;20957;-38
2022/04/16 11:50:59;;;;;;;1.27;1.00;;;;;;;8.88;68.04;99342.27;1766369;81;21029;-37
2022/04/16 11:53:25;;;;;;;1.05;0.70;;;;;;;8.84;68.06;99354.92;1765985;81;21041;-37
2022/04/16 11:55:54;;;;;;;1.15;0.75;;;;;;;8.76;68.32;99351.03;1766061;81;20925;-38
2022/04/16 11:58:29;;;;;;;1.12;0.70;;;;;;;8.72;68.35;99363.88;1718386;81;21522;-37